sensor_id;sensor_type;location;lat;lon;timestamp;temperature;humidity
52073;DHT22;38074;51.232;6.826;2023-10-09T00:04:33;23.90;56.20
52073;DHT22;38074;51.232;6.826;2023-10-09T00:11:52;24.00;56.20
52073;DHT22;38074;51.232;6.826;2023-10-09T00:19:14;24.00;56.20
52073;DHT22;38074;51.232;6.826;2023-10-09T00:26:35;23.90;56.10
52073;DHT22;38074;51.232;6.826;2023-10-09T00:33:58;24.00;56.20
52073;DHT22;38074;51.232;6.826;2023-10-09T00:41:34;23.90;56.10
52073;DHT22;38074;51.232;6.826;2023-10-09T00:48:57;23.90;56.10
52073;DHT22;38074;51.232;6.826;2023-10-09T00:56:18;23.90;56.00
52073;DHT22;38074;51.232;6.826;2023-10-09T01:03:34;23.90;56.10
52073;DHT22;38074;51.232;6.826;2023-10-09T01:10:51;23.90;56.00
52073;DHT22;38074;51.232;6.826;2023-10-09T01:18:08;24.00;56.10
52073;DHT22;38074;51.232;6.826;2023-10-09T01:25:24;23.90;56.00
52073;DHT22;38074;51.232;6.826;2023-10-09T01:32:40;23.90;56.00
52073;DHT22;38074;51.232;6.826;2023-10-09T01:39:58;23.90;56.00
52073;DHT22;38074;51.232;6.826;2023-10-09T01:47:14;23.90;55.90
52073;DHT22;38074;51.232;6.826;2023-10-09T01:54:35;23.90;55.90
52073;DHT22;38074;51.232;6.826;2023-10-09T02:01:53;23.90;55.90
52073;DHT22;38074;51.232;6.826;2023-10-09T02:09:13;23.90;55.90
52073;DHT22;38074;51.232;6.826;2023-10-09T02:16:37;23.90;55.90
52073;DHT22;38074;51.232;6.826;2023-10-09T02:23:57;23.90;55.90
52073;DHT22;38074;51.232;6.826;2023-10-09T02:31:13;23.90;55.90
52073;DHT22;38074;51.232;6.826;2023-10-09T02:38:28;23.90;55.90
52073;DHT22;38074;51.232;6.826;2023-10-09T02:45:47;23.90;55.90
52073;DHT22;38074;51.232;6.826;2023-10-09T02:53:05;23.90;55.90
52073;DHT22;38074;51.232;6.826;2023-10-09T03:00:25;23.90;55.90
52073;DHT22;38074;51.232;6.826;2023-10-09T03:07:46;23.90;55.80
52073;DHT22;38074;51.232;6.826;2023-10-09T03:15:05;23.90;55.80
52073;DHT22;38074;51.232;6.826;2023-10-09T03:22:23;23.90;55.80
52073;DHT22;38074;51.232;6.826;2023-10-09T03:29:39;23.90;55.80
52073;DHT22;38074;51.232;6.826;2023-10-09T03:36:55;23.90;55.80
52073;DHT22;38074;51.232;6.826;2023-10-09T03:44:19;23.90;55.70
52073;DHT22;38074;51.232;6.826;2023-10-09T03:51:35;23.90;55.70
52073;DHT22;38074;51.232;6.826;2023-10-09T03:58:52;23.90;55.80
52073;DHT22;38074;51.232;6.826;2023-10-09T04:06:08;23.90;55.70
52073;DHT22;38074;51.232;6.826;2023-10-09T04:13:26;23.90;55.70
52073;DHT22;38074;51.232;6.826;2023-10-09T04:20:48;23.90;55.70
52073;DHT22;38074;51.232;6.826;2023-10-09T04:28:26;23.90;55.70
52073;DHT22;38074;51.232;6.826;2023-10-09T04:35:45;23.90;55.70
52073;DHT22;38074;51.232;6.826;2023-10-09T04:43:20;23.90;55.70
52073;DHT22;38074;51.232;6.826;2023-10-09T04:50:36;23.90;55.70
52073;DHT22;38074;51.232;6.826;2023-10-09T04:58:00;23.90;55.70
52073;DHT22;38074;51.232;6.826;2023-10-09T05:05:16;23.90;55.70
52073;DHT22;38074;51.232;6.826;2023-10-09T05:12:51;23.90;55.70
52073;DHT22;38074;51.232;6.826;2023-10-09T05:20:13;23.90;55.70
52073;DHT22;38074;51.232;6.826;2023-10-09T05:27:41;23.90;55.70
52073;DHT22;38074;51.232;6.826;2023-10-09T05:35:06;23.90;55.80
52073;DHT22;38074;51.232;6.826;2023-10-09T05:42:35;23.90;55.70
52073;DHT22;38074;51.232;6.826;2023-10-09T05:49:53;23.90;55.70
52073;DHT22;38074;51.232;6.826;2023-10-09T05:57:24;23.90;55.70
52073;DHT22;38074;51.232;6.826;2023-10-09T06:04:58;23.90;55.70
52073;DHT22;38074;51.232;6.826;2023-10-09T06:12:15;23.90;55.70
52073;DHT22;38074;51.232;6.826;2023-10-09T06:20:05;23.90;55.70
52073;DHT22;38074;51.232;6.826;2023-10-09T06:27:40;23.90;55.70
52073;DHT22;38074;51.232;6.826;2023-10-09T06:35:12;23.90;55.70
52073;DHT22;38074;51.232;6.826;2023-10-09T06:42:33;23.90;55.70
52073;DHT22;38074;51.232;6.826;2023-10-09T06:49:49;23.90;55.70
52073;DHT22;38074;51.232;6.826;2023-10-09T06:57:25;23.90;55.70
52073;DHT22;38074;51.232;6.826;2023-10-09T07:04:59;23.90;55.80
52073;DHT22;38074;51.232;6.826;2023-10-09T07:12:25;23.90;55.80
52073;DHT22;38074;51.232;6.826;2023-10-09T07:19:43;23.90;55.80
52073;DHT22;38074;51.232;6.826;2023-10-09T07:26:59;23.90;55.80
52073;DHT22;38074;51.232;6.826;2023-10-09T07:34:21;23.90;55.80
52073;DHT22;38074;51.232;6.826;2023-10-09T07:41:46;23.90;55.80
52073;DHT22;38074;51.232;6.826;2023-10-09T07:49:11;23.90;55.90
52073;DHT22;38074;51.232;6.826;2023-10-09T07:56:41;23.90;55.90
52073;DHT22;38074;51.232;6.826;2023-10-09T08:03:57;23.90;55.90
52073;DHT22;38074;51.232;6.826;2023-10-09T08:11:13;23.90;56.00
52073;DHT22;38074;51.232;6.826;2023-10-09T08:18:47;23.90;56.00
52073;DHT22;38074;51.232;6.826;2023-10-09T08:26:06;23.90;56.00
52073;DHT22;38074;51.232;6.826;2023-10-09T08:33:29;23.90;56.00
52073;DHT22;38074;51.232;6.826;2023-10-09T08:40:56;23.90;56.00
52073;DHT22;38074;51.232;6.826;2023-10-09T08:48:14;23.90;56.00
52073;DHT22;38074;51.232;6.826;2023-10-09T08:55:33;23.90;56.00
52073;DHT22;38074;51.232;6.826;2023-10-09T09:02:52;23.90;56.00
52073;DHT22;38074;51.232;6.826;2023-10-09T09:10:08;23.90;56.10
52073;DHT22;38074;51.232;6.826;2023-10-09T09:17:33;23.90;56.10
52073;DHT22;38074;51.232;6.826;2023-10-09T09:24:59;23.90;56.00
52073;DHT22;38074;51.232;6.826;2023-10-09T09:32:27;23.90;56.00
52073;DHT22;38074;51.232;6.826;2023-10-09T09:39:51;23.90;56.10
52073;DHT22;38074;51.232;6.826;2023-10-09T09:47:07;24.00;56.80
52073;DHT22;38074;51.232;6.826;2023-10-09T09:54:23;24.00;56.20
52073;DHT22;38074;51.232;6.826;2023-10-09T10:01:40;24.00;56.10
52073;DHT22;38074;51.232;6.826;2023-10-09T10:08:55;24.00;56.10
52073;DHT22;38074;51.232;6.826;2023-10-09T10:16:12;23.90;56.10
52073;DHT22;38074;51.232;6.826;2023-10-09T10:23:31;24.00;56.20
52073;DHT22;38074;51.232;6.826;2023-10-09T10:30:52;24.00;56.20
52073;DHT22;38074;51.232;6.826;2023-10-09T10:45:37;24.00;56.20
52073;DHT22;38074;51.232;6.826;2023-10-09T10:53:14;24.00;56.20
52073;DHT22;38074;51.232;6.826;2023-10-09T11:00:32;24.00;56.10
52073;DHT22;38074;51.232;6.826;2023-10-09T11:08:10;24.00;56.10
52073;DHT22;38074;51.232;6.826;2023-10-09T11:15:34;24.00;56.10
52073;DHT22;38074;51.232;6.826;2023-10-09T11:22:59;24.00;56.80
52073;DHT22;38074;51.232;6.826;2023-10-09T11:30:32;24.00;56.10
52073;DHT22;38074;51.232;6.826;2023-10-09T11:37:56;24.00;56.10
52073;DHT22;38074;51.232;6.826;2023-10-09T11:45:26;24.00;56.10
52073;DHT22;38074;51.232;6.826;2023-10-09T11:52:58;24.00;56.10
52073;DHT22;38074;51.232;6.826;2023-10-09T12:00:33;24.00;56.10
52073;DHT22;38074;51.232;6.826;2023-10-09T12:07:59;24.00;56.10
52073;DHT22;38074;51.232;6.826;2023-10-09T12:15:17;24.00;56.10
52073;DHT22;38074;51.232;6.826;2023-10-09T12:22:33;24.00;56.10
52073;DHT22;38074;51.232;6.826;2023-10-09T12:29:48;24.00;56.10
52073;DHT22;38074;51.232;6.826;2023-10-09T12:37:05;24.00;56.10
52073;DHT22;38074;51.232;6.826;2023-10-09T12:44:21;24.00;56.10
52073;DHT22;38074;51.232;6.826;2023-10-09T12:51:37;24.00;56.10
52073;DHT22;38074;51.232;6.826;2023-10-09T12:58:55;24.00;56.10
52073;DHT22;38074;51.232;6.826;2023-10-09T13:06:12;24.00;56.10
52073;DHT22;38074;51.232;6.826;2023-10-09T13:13:28;24.00;56.20
52073;DHT22;38074;51.232;6.826;2023-10-09T13:20:57;24.00;56.20
52073;DHT22;38074;51.232;6.826;2023-10-09T13:28:12;24.00;56.20
52073;DHT22;38074;51.232;6.826;2023-10-09T13:35:36;24.00;56.20
52073;DHT22;38074;51.232;6.826;2023-10-09T13:43:03;24.00;56.20
52073;DHT22;38074;51.232;6.826;2023-10-09T13:50:23;24.00;56.20
52073;DHT22;38074;51.232;6.826;2023-10-09T13:57:40;24.00;56.20
52073;DHT22;38074;51.232;6.826;2023-10-09T14:04:58;24.00;56.20
52073;DHT22;38074;51.232;6.826;2023-10-09T14:12:16;24.00;56.20
52073;DHT22;38074;51.232;6.826;2023-10-09T14:19:34;24.00;56.20
52073;DHT22;38074;51.232;6.826;2023-10-09T14:26:50;24.00;56.20
52073;DHT22;38074;51.232;6.826;2023-10-09T14:34:07;24.00;56.20
52073;DHT22;38074;51.232;6.826;2023-10-09T14:41:24;24.00;56.20
52073;DHT22;38074;51.232;6.826;2023-10-09T14:48:41;24.00;56.20
52073;DHT22;38074;51.232;6.826;2023-10-09T14:56:01;24.00;56.30
52073;DHT22;38074;51.232;6.826;2023-10-09T15:03:18;24.00;56.30
52073;DHT22;38074;51.232;6.826;2023-10-09T15:10:35;24.00;56.30
52073;DHT22;38074;51.232;6.826;2023-10-09T15:17:51;24.00;56.30
52073;DHT22;38074;51.232;6.826;2023-10-09T15:25:07;24.00;56.30
52073;DHT22;38074;51.232;6.826;2023-10-09T15:32:23;24.00;56.40
52073;DHT22;38074;51.232;6.826;2023-10-09T15:39:39;24.00;56.40
52073;DHT22;38074;51.232;6.826;2023-10-09T15:46:56;24.00;56.40
52073;DHT22;38074;51.232;6.826;2023-10-09T15:54:14;24.00;56.40
52073;DHT22;38074;51.232;6.826;2023-10-09T16:01:34;24.00;56.40
52073;DHT22;38074;51.232;6.826;2023-10-09T16:08:50;24.00;56.40
52073;DHT22;38074;51.232;6.826;2023-10-09T16:16:06;24.00;56.40
52073;DHT22;38074;51.232;6.826;2023-10-09T16:23:25;24.00;56.50
52073;DHT22;38074;51.232;6.826;2023-10-09T16:30:42;24.00;56.50
52073;DHT22;38074;51.232;6.826;2023-10-09T16:37:58;24.00;56.50
52073;DHT22;38074;51.232;6.826;2023-10-09T16:45:20;24.00;56.50
52073;DHT22;38074;51.232;6.826;2023-10-09T16:52:36;24.00;56.50
52073;DHT22;38074;51.232;6.826;2023-10-09T16:59:54;24.00;56.50
52073;DHT22;38074;51.232;6.826;2023-10-09T17:07:10;24.10;56.60
52073;DHT22;38074;51.232;6.826;2023-10-09T17:14:29;24.00;56.60
52073;DHT22;38074;51.232;6.826;2023-10-09T17:21:46;24.00;56.60
52073;DHT22;38074;51.232;6.826;2023-10-09T17:29:02;24.00;56.60
52073;DHT22;38074;51.232;6.826;2023-10-09T17:36:17;24.00;56.60
52073;DHT22;38074;51.232;6.826;2023-10-09T17:43:33;24.00;56.60
52073;DHT22;38074;51.232;6.826;2023-10-09T17:50:50;24.00;56.60
52073;DHT22;38074;51.232;6.826;2023-10-09T17:58:08;24.00;57.20
52073;DHT22;38074;51.232;6.826;2023-10-09T18:05:25;24.00;56.70
52073;DHT22;38074;51.232;6.826;2023-10-09T18:12:45;24.00;56.70
52073;DHT22;38074;51.232;6.826;2023-10-09T18:20:00;24.00;56.70
52073;DHT22;38074;51.232;6.826;2023-10-09T18:27:16;24.00;56.70
52073;DHT22;38074;51.232;6.826;2023-10-09T18:34:32;24.00;56.80
52073;DHT22;38074;51.232;6.826;2023-10-09T18:49:19;24.00;56.80
52073;DHT22;38074;51.232;6.826;2023-10-09T18:56:35;24.00;56.80
52073;DHT22;38074;51.232;6.826;2023-10-09T19:03:51;24.00;56.80
52073;DHT22;38074;51.232;6.826;2023-10-09T19:11:06;24.00;56.80
52073;DHT22;38074;51.232;6.826;2023-10-09T19:18:25;24.00;56.90
52073;DHT22;38074;51.232;6.826;2023-10-09T19:25:43;24.00;56.90
52073;DHT22;38074;51.232;6.826;2023-10-09T19:32:59;24.00;56.90
52073;DHT22;38074;51.232;6.826;2023-10-09T19:40:15;24.00;56.90
52073;DHT22;38074;51.232;6.826;2023-10-09T19:47:30;24.00;56.90
52073;DHT22;38074;51.232;6.826;2023-10-09T19:54:46;24.00;56.90
52073;DHT22;38074;51.232;6.826;2023-10-09T20:02:03;24.00;56.90
52073;DHT22;38074;51.232;6.826;2023-10-09T20:09:18;24.00;57.00
52073;DHT22;38074;51.232;6.826;2023-10-09T20:16:35;24.00;56.90
52073;DHT22;38074;51.232;6.826;2023-10-09T20:23:52;24.00;56.90
52073;DHT22;38074;51.232;6.826;2023-10-09T20:31:07;24.00;57.00
52073;DHT22;38074;51.232;6.826;2023-10-09T20:38:23;24.00;57.00
52073;DHT22;38074;51.232;6.826;2023-10-09T20:45:41;24.00;57.00
52073;DHT22;38074;51.232;6.826;2023-10-09T20:52:57;24.00;57.00
52073;DHT22;38074;51.232;6.826;2023-10-09T21:00:16;24.00;57.00
52073;DHT22;38074;51.232;6.826;2023-10-09T21:07:34;24.00;57.00
52073;DHT22;38074;51.232;6.826;2023-10-09T21:14:50;24.00;57.00
52073;DHT22;38074;51.232;6.826;2023-10-09T21:22:06;24.00;57.00
52073;DHT22;38074;51.232;6.826;2023-10-09T21:29:21;24.00;57.00
52073;DHT22;38074;51.232;6.826;2023-10-09T21:36:37;24.00;57.00
52073;DHT22;38074;51.232;6.826;2023-10-09T21:43:53;24.00;57.00
52073;DHT22;38074;51.232;6.826;2023-10-09T21:51:09;24.00;57.00
52073;DHT22;38074;51.232;6.826;2023-10-09T21:58:24;24.00;57.00
52073;DHT22;38074;51.232;6.826;2023-10-09T22:05:40;24.00;57.00
52073;DHT22;38074;51.232;6.826;2023-10-09T22:12:58;24.00;57.00
52073;DHT22;38074;51.232;6.826;2023-10-09T22:20:16;24.00;57.00
52073;DHT22;38074;51.232;6.826;2023-10-09T22:27:34;24.00;57.00
52073;DHT22;38074;51.232;6.826;2023-10-09T22:34:50;24.00;57.00
52073;DHT22;38074;51.232;6.826;2023-10-09T22:42:09;24.00;57.00
52073;DHT22;38074;51.232;6.826;2023-10-09T22:49:25;24.00;57.00
52073;DHT22;38074;51.232;6.826;2023-10-09T22:56:47;24.00;57.00
52073;DHT22;38074;51.232;6.826;2023-10-09T23:04:03;24.00;57.00
52073;DHT22;38074;51.232;6.826;2023-10-09T23:11:30;24.00;57.00
52073;DHT22;38074;51.232;6.826;2023-10-09T23:18:48;24.00;57.00
52073;DHT22;38074;51.232;6.826;2023-10-09T23:26:18;24.00;57.00
52073;DHT22;38074;51.232;6.826;2023-10-09T23:33:37;24.00;57.00
52073;DHT22;38074;51.232;6.826;2023-10-09T23:40:53;24.00;57.00
52073;DHT22;38074;51.232;6.826;2023-10-09T23:48:09;23.90;57.00
52073;DHT22;38074;51.232;6.826;2023-10-09T23:55:29;24.00;57.00
